createdAt,value
2023-03-19T00:00:46.678Z,10.03
2023-03-19T00:03:13.758Z,9.86
2023-03-19T00:05:41.749Z,9.89
2023-03-19T00:08:08.853Z,10.02
2023-03-19T00:10:39.742Z,9.84
2023-03-19T00:13:07.070Z,9.90
2023-03-19T00:15:34.522Z,10.37
2023-03-19T00:18:02.109Z,10.29
2023-03-19T00:20:29.144Z,10.12
2023-03-19T00:22:56.544Z,10.17
2023-03-19T00:25:24.132Z,10.00
2023-03-19T00:27:52.783Z,9.78
2023-03-19T00:30:20.171Z,10.10
2023-03-19T00:32:48.190Z,9.99
2023-03-19T00:35:15.936Z,9.69
2023-03-19T00:37:43.086Z,9.77
2023-03-19T00:40:11.661Z,9.50
2023-03-19T00:42:38.719Z,9.67
2023-03-19T00:45:06.958Z,10.09
2023-03-19T00:47:34.238Z,9.70
2023-03-19T00:50:01.989Z,9.58
2023-03-19T00:52:29.087Z,9.62
2023-03-19T00:54:56.175Z,9.67
2023-03-19T00:57:23.569Z,9.73
2023-03-19T00:59:50.933Z,9.40
2023-03-19T01:02:18.066Z,9.56
2023-03-19T01:04:47.459Z,9.33
2023-03-19T01:07:14.706Z,9.22
2023-03-19T01:09:41.991Z,9.28
2023-03-19T01:12:09.458Z,9.65
2023-03-19T01:14:36.501Z,9.42
2023-03-19T01:17:03.567Z,9.40
2023-03-19T01:19:30.900Z,9.95
2023-03-19T01:21:58.029Z,10.11
2023-03-19T01:24:25.387Z,9.44
2023-03-19T01:26:52.414Z,9.26
2023-03-19T01:29:19.496Z,9.22
2023-03-19T01:31:46.597Z,9.02
2023-03-19T01:34:13.735Z,8.62
2023-03-19T01:36:41.080Z,8.64
2023-03-19T01:39:08.202Z,8.39
2023-03-19T01:41:35.336Z,8.43
2023-03-19T01:44:02.356Z,8.54
2023-03-19T01:46:34.766Z,8.71
2023-03-19T01:49:07.625Z,8.55
2023-03-19T01:51:41.464Z,8.41
2023-03-19T01:54:14.612Z,8.37
2023-03-19T01:56:44.984Z,8.50
2023-03-19T01:59:26.848Z,8.74
2023-03-19T02:02:09.394Z,8.78
2023-03-19T02:04:40.810Z,8.83
2023-03-19T02:07:09.573Z,8.54
2023-03-19T02:09:37.211Z,8.52
2023-03-19T02:12:05.465Z,8.53
2023-03-19T02:14:32.552Z,8.52
2023-03-19T02:16:59.884Z,8.90
2023-03-19T02:19:44.622Z,8.35
2023-03-19T02:22:13.779Z,8.20
2023-03-19T02:25:17.150Z,7.94
2023-03-19T02:27:44.531Z,7.94
2023-03-19T02:30:37.791Z,8.07
2023-03-19T02:33:05.276Z,8.33
2023-03-19T02:35:35.202Z,8.93
2023-03-19T02:38:05.164Z,8.48
2023-03-19T02:40:45.253Z,8.30
2023-03-19T02:43:12.386Z,8.20
2023-03-19T02:45:40.482Z,8.36
2023-03-19T02:48:07.540Z,8.29
2023-03-19T02:50:34.830Z,8.18
2023-03-19T02:53:02.074Z,8.42
2023-03-19T02:55:29.155Z,8.53
2023-03-19T02:57:56.323Z,8.74
2023-03-19T03:00:23.449Z,9.02
2023-03-19T03:02:50.778Z,8.94
2023-03-19T03:05:18.448Z,8.57
2023-03-19T03:07:45.522Z,8.39
2023-03-19T03:10:12.931Z,8.63
2023-03-19T03:12:40.085Z,8.37
2023-03-19T03:15:08.888Z,8.55
2023-03-19T03:17:40.794Z,8.47
2023-03-19T03:20:11.423Z,8.62
2023-03-19T03:22:39.913Z,8.55
2023-03-19T03:25:07.584Z,8.55
2023-03-19T03:27:34.823Z,8.58
2023-03-19T03:30:01.933Z,8.44
2023-03-19T03:32:29.050Z,8.50
2023-03-19T03:34:56.098Z,8.48
2023-03-19T03:37:23.160Z,8.62
2023-03-19T03:39:50.930Z,8.61
2023-03-19T03:42:18.480Z,8.88
2023-03-19T03:44:45.583Z,8.97
2023-03-19T03:47:13.530Z,9.15
2023-03-19T03:49:40.583Z,9.27
2023-03-19T03:52:09.005Z,9.84
2023-03-19T03:54:36.137Z,10.11
2023-03-19T03:57:03.793Z,10.19
2023-03-19T03:59:31.074Z,10.29
2023-03-19T04:01:58.328Z,10.52
2023-03-19T04:04:25.475Z,10.67
2023-03-19T04:06:52.568Z,10.55
2023-03-19T04:09:19.692Z,10.52
2023-03-19T04:11:47.130Z,10.29
2023-03-19T04:14:14.390Z,10.37
2023-03-19T04:16:42.073Z,9.47
2023-03-19T04:19:09.144Z,9.91
2023-03-19T04:21:36.208Z,10.40
2023-03-19T04:24:03.616Z,10.25
2023-03-19T04:26:30.907Z,10.46
2023-03-19T04:28:58.804Z,10.65
2023-03-19T04:31:25.932Z,10.68
2023-03-19T04:33:53.398Z,10.37
2023-03-19T04:36:20.959Z,10.34
2023-03-19T04:38:48.022Z,10.50
2023-03-19T04:41:16.246Z,10.34
2023-03-19T04:43:43.318Z,10.65
2023-03-19T04:46:10.477Z,10.08
2023-03-19T04:48:37.742Z,10.35
2023-03-19T04:51:08.445Z,10.62
2023-03-19T04:53:38.212Z,10.50
2023-03-19T04:56:07.052Z,10.53
2023-03-19T04:58:34.400Z,10.54
2023-03-19T05:01:01.582Z,10.24
2023-03-19T05:03:28.725Z,9.36
2023-03-19T05:05:55.899Z,9.92
2023-03-19T05:08:23.031Z,10.56
2023-03-19T05:10:50.138Z,10.40
2023-03-19T05:13:18.068Z,10.55
2023-03-19T05:15:47.419Z,10.86
2023-03-19T05:18:14.695Z,10.94
2023-03-19T05:20:42.600Z,11.06
2023-03-19T05:23:10.464Z,10.95
2023-03-19T05:25:37.610Z,11.08
2023-03-19T05:28:05.557Z,11.07
2023-03-19T05:30:33.235Z,11.01
2023-03-19T05:33:02.141Z,10.71
2023-03-19T05:35:30.631Z,10.89
2023-03-19T05:37:57.883Z,10.62
2023-03-19T05:40:26.474Z,9.94
2023-03-19T05:42:53.628Z,9.79
2023-03-19T05:45:21.414Z,9.36
2023-03-19T05:47:50.038Z,10.02
2023-03-19T05:50:19.356Z,10.60
2023-03-19T05:52:46.432Z,10.57
2023-03-19T05:55:13.731Z,9.12
2023-03-19T05:57:41.168Z,8.16
2023-03-19T06:00:11.129Z,8.36
2023-03-19T06:02:38.415Z,8.46
2023-03-19T06:05:07.124Z,8.60
2023-03-19T06:07:34.194Z,8.37
2023-03-19T06:10:01.403Z,9.04
2023-03-19T06:12:28.785Z,9.41
2023-03-19T06:14:56.635Z,9.33
2023-03-19T06:17:23.769Z,9.36
2023-03-19T06:19:50.835Z,8.94
2023-03-19T06:22:17.943Z,9.06
2023-03-19T06:24:44.988Z,9.17
2023-03-19T06:27:12.270Z,9.50
2023-03-19T06:29:39.360Z,9.36
2023-03-19T06:32:06.626Z,9.68
2023-03-19T06:34:33.735Z,10.23
2023-03-19T06:37:01.118Z,10.19
2023-03-19T06:39:28.214Z,10.46
2023-03-19T06:41:55.781Z,11.03
2023-03-19T06:44:22.910Z,11.10
2023-03-19T06:46:49.977Z,10.84
2023-03-19T06:49:17.217Z,11.68
2023-03-19T06:51:44.398Z,12.35
2023-03-19T06:54:11.472Z,12.23
2023-03-19T06:56:38.561Z,12.32
2023-03-19T06:59:05.622Z,12.29
2023-03-19T07:01:32.792Z,12.05
2023-03-19T07:03:59.905Z,12.55
2023-03-19T07:06:26.970Z,12.73
2023-03-19T07:08:54.017Z,13.25
2023-03-19T07:11:21.133Z,13.24
2023-03-19T07:13:50.354Z,13.16
2023-03-19T07:16:17.431Z,12.62
2023-03-19T07:18:44.496Z,11.94
2023-03-19T07:21:11.536Z,11.99
2023-03-19T07:23:38.587Z,12.91
2023-03-19T07:26:05.792Z,13.10
2023-03-19T07:28:32.916Z,13.09
2023-03-19T07:31:00.142Z,12.87
2023-03-19T07:33:27.225Z,12.82
2023-03-19T07:35:54.400Z,11.82
2023-03-19T07:38:22.626Z,12.68
2023-03-19T07:41:01.480Z,12.82
2023-03-19T07:43:30.854Z,12.83
2023-03-19T07:45:58.772Z,12.85
2023-03-19T07:48:26.070Z,13.07
2023-03-19T07:50:54.235Z,12.95
2023-03-19T07:53:21.456Z,12.61
2023-03-19T07:55:49.036Z,11.99
2023-03-19T07:58:16.979Z,10.73
2023-03-19T08:00:45.040Z,10.67
2023-03-19T08:03:12.418Z,10.37
2023-03-19T08:05:39.800Z,10.55
2023-03-19T08:08:07.206Z,10.38
2023-03-19T08:10:36.491Z,10.53
2023-03-19T08:13:05.298Z,10.54
2023-03-19T08:15:32.911Z,10.71
2023-03-19T08:18:04.858Z,11.41
2023-03-19T08:20:32.883Z,12.59
2023-03-19T08:23:00.277Z,13.10
2023-03-19T08:25:32.323Z,12.75
2023-03-19T08:28:01.206Z,13.35
2023-03-19T08:30:28.933Z,13.43
2023-03-19T08:32:56.143Z,13.62
2023-03-19T08:35:23.929Z,13.70
2023-03-19T08:37:51.002Z,13.58
2023-03-19T08:40:18.120Z,13.84
2023-03-19T08:42:45.572Z,13.85
2023-03-19T08:45:15.653Z,13.67
2023-03-19T08:47:43.994Z,13.73
2023-03-19T08:50:11.985Z,13.94
2023-03-19T08:52:39.273Z,13.89
2023-03-19T08:55:08.390Z,13.61
2023-03-19T08:57:36.390Z,13.26
2023-03-19T09:00:06.580Z,13.18
2023-03-19T09:02:33.829Z,13.23
2023-03-19T09:05:00.954Z,13.32
2023-03-19T09:07:28.040Z,13.21
2023-03-19T09:09:55.470Z,13.23
2023-03-19T09:12:22.613Z,13.17
2023-03-19T09:14:49.755Z,13.08
2023-03-19T09:17:19.297Z,12.90
2023-03-19T09:19:46.380Z,12.66
2023-03-19T09:22:15.523Z,12.74
2023-03-19T09:24:42.865Z,12.10
2023-03-19T09:27:09.930Z,11.88
2023-03-19T09:29:37.031Z,11.95
2023-03-19T09:32:04.347Z,12.17
2023-03-19T09:34:31.571Z,11.52
2023-03-19T09:36:58.681Z,11.58
2023-03-19T09:39:26.929Z,11.56
2023-03-19T09:42:37.909Z,11.61
2023-03-19T09:45:12.347Z,11.47
2023-03-19T09:47:43.357Z,11.92
2023-03-19T09:50:26.127Z,11.93
2023-03-19T09:53:19.151Z,12.18
2023-03-19T09:55:52.492Z,12.03
2023-03-19T09:58:30.709Z,12.45
2023-03-19T10:01:00.953Z,11.93
2023-03-19T10:03:27.814Z,11.36
2023-03-19T10:06:09.483Z,11.11
2023-03-19T10:09:33.526Z,11.40
2023-03-19T10:12:48.425Z,12.39
2023-03-19T10:15:32.577Z,12.41
2023-03-19T10:18:24.372Z,12.53
2023-03-19T10:21:35.302Z,12.69
2023-03-19T10:24:27.821Z,13.33
2023-03-19T10:27:10.808Z,12.69
2023-03-19T10:29:39.006Z,12.39
2023-03-19T10:32:41.282Z,12.96
2023-03-19T10:35:27.673Z,12.89
2023-03-19T10:37:55.713Z,13.19
2023-03-19T10:40:51.456Z,13.47
2023-03-19T10:43:25.489Z,14.52
2023-03-19T10:45:54.082Z,14.86
2023-03-19T10:48:28.333Z,15.39
2023-03-19T10:51:05.543Z,15.29
2023-03-19T10:53:38.831Z,15.35
2023-03-19T10:56:23.187Z,15.19
2023-03-19T10:59:30.220Z,15.28
2023-03-19T11:02:27.861Z,16.05
2023-03-19T11:05:14.729Z,16.73
2023-03-19T11:07:41.899Z,16.38
2023-03-19T11:10:18.763Z,16.88
2023-03-19T11:13:15.625Z,17.00
2023-03-19T11:15:42.778Z,16.81
2023-03-19T11:18:36.829Z,16.78
2023-03-19T11:21:23.485Z,15.87
2023-03-19T11:24:03.342Z,16.87
2023-03-19T11:26:31.280Z,16.92
2023-03-19T11:29:05.172Z,17.26
2023-03-19T11:31:54.364Z,16.51
2023-03-19T11:34:58.974Z,15.75
2023-03-19T11:38:01.043Z,17.00
2023-03-19T11:41:09.064Z,16.29
2023-03-19T11:44:19.121Z,16.86
2023-03-19T11:47:38.939Z,15.81
2023-03-19T11:50:22.146Z,16.02
2023-03-19T11:53:05.175Z,16.68
2023-03-19T11:55:43.552Z,16.94
2023-03-19T11:59:09.690Z,17.02
2023-03-19T12:02:35.210Z,16.46
2023-03-19T12:05:51.514Z,16.78
2023-03-19T12:08:45.788Z,16.72
2023-03-19T12:11:28.181Z,16.54
2023-03-19T12:14:30.135Z,17.10
2023-03-19T12:17:48.771Z,17.48
2023-03-19T12:21:03.479Z,16.66
2023-03-19T12:24:23.115Z,16.72
2023-03-19T12:27:10.318Z,16.38
2023-03-19T12:29:52.258Z,16.87
2023-03-19T12:32:38.310Z,17.28
2023-03-19T12:35:26.413Z,17.55
2023-03-19T12:38:06.017Z,17.81
2023-03-19T12:40:43.607Z,17.65
2023-03-19T12:43:55.267Z,16.83
2023-03-19T12:46:33.196Z,17.09
2023-03-19T12:49:37.441Z,17.58
2023-03-19T12:52:39.568Z,18.42
2023-03-19T12:55:36.336Z,18.03
2023-03-19T12:58:59.925Z,17.64
2023-03-19T13:01:38.925Z,16.90
2023-03-19T13:04:33.222Z,17.59
2023-03-19T13:07:59.962Z,17.29
2023-03-19T13:10:31.385Z,17.22
2023-03-19T13:13:01.275Z,18.76
2023-03-19T13:15:47.786Z,19.12
2023-03-19T13:18:23.840Z,18.66
2023-03-19T13:21:21.565Z,19.40
2023-03-19T13:24:02.278Z,19.11
2023-03-19T13:26:29.821Z,18.76
2023-03-19T13:29:13.798Z,18.81
2023-03-19T13:31:41.679Z,19.37
2023-03-19T13:34:28.667Z,19.71
2023-03-19T13:37:10.582Z,19.64
2023-03-19T13:39:37.992Z,19.59
2023-03-19T13:42:42.487Z,19.06
2023-03-19T13:45:38.358Z,19.06
2023-03-19T13:48:28.567Z,20.00
2023-03-19T13:51:29.656Z,19.76
2023-03-19T13:54:13.574Z,20.24
2023-03-19T13:57:01.016Z,19.82
2023-03-19T13:59:43.879Z,19.86
2023-03-19T14:02:24.060Z,20.15
2023-03-19T14:05:04.033Z,19.37
2023-03-19T14:07:41.773Z,20.05
2023-03-19T14:10:57.212Z,20.08
2023-03-19T14:13:38.208Z,20.08
2023-03-19T14:16:26.178Z,20.47
2023-03-19T14:19:00.756Z,19.97
2023-03-19T14:22:02.675Z,19.90
2023-03-19T14:24:55.855Z,18.97
2023-03-19T14:27:32.869Z,18.58
2023-03-19T14:30:11.101Z,18.34
2023-03-19T14:32:42.160Z,19.45
2023-03-19T14:35:20.510Z,19.51
2023-03-19T14:37:52.426Z,18.92
2023-03-19T14:40:50.546Z,19.19
2023-03-19T14:44:22.798Z,20.11
2023-03-19T14:47:22.636Z,20.20
2023-03-19T14:50:57.198Z,20.62
2023-03-19T14:53:58.632Z,21.21
2023-03-19T14:56:36.089Z,20.53
2023-03-19T14:59:06.004Z,20.57
2023-03-19T15:01:41.097Z,20.71
2023-03-19T15:04:15.813Z,19.96
2023-03-19T15:06:58.242Z,19.60
2023-03-19T15:09:33.527Z,19.53
2023-03-19T15:12:46.021Z,19.99
2023-03-19T15:15:50.219Z,19.97
2023-03-19T15:18:20.599Z,19.77
2023-03-19T15:20:55.496Z,19.49
2023-03-19T15:23:29.386Z,19.27
2023-03-19T15:26:03.901Z,18.58
2023-03-19T15:28:54.175Z,19.22
2023-03-19T15:31:37.521Z,19.25
2023-03-19T15:34:31.221Z,18.88
2023-03-19T15:37:15.488Z,19.07
2023-03-19T15:39:54.349Z,18.44
2023-03-19T15:42:26.193Z,18.62
2023-03-19T15:45:12.173Z,18.39
2023-03-19T15:48:08.406Z,18.16
2023-03-19T15:50:42.179Z,18.77
2023-03-19T15:53:24.415Z,18.89
2023-03-19T15:55:55.670Z,18.73
2023-03-19T15:58:32.465Z,18.26
2023-03-19T16:01:01.145Z,18.27
2023-03-19T16:03:50.996Z,18.51
2023-03-19T16:06:29.346Z,18.64
2023-03-19T16:09:32.802Z,17.95
2023-03-19T16:12:01.235Z,18.45
2023-03-19T16:14:39.680Z,18.69
2023-03-19T16:17:17.191Z,18.46
2023-03-19T16:19:50.361Z,18.17
2023-03-19T16:22:23.722Z,18.45
2023-03-19T16:24:53.815Z,18.41
2023-03-19T16:27:34.500Z,18.16
2023-03-19T16:30:02.446Z,18.13
2023-03-19T16:32:32.414Z,18.54
2023-03-19T16:35:20.544Z,18.26
2023-03-19T16:37:55.007Z,18.52
2023-03-19T16:40:21.851Z,18.35
2023-03-19T16:42:56.180Z,18.23
2023-03-19T16:45:31.060Z,17.67
2023-03-19T16:48:05.219Z,17.55
2023-03-19T16:50:43.107Z,17.75
2023-03-19T16:53:24.284Z,17.87
2023-03-19T16:55:54.334Z,17.93
2023-03-19T16:58:36.427Z,17.74
2023-03-19T17:01:22.234Z,17.52
2023-03-19T17:03:50.317Z,17.32
2023-03-19T17:06:19.135Z,17.05
2023-03-19T17:08:46.248Z,17.19
2023-03-19T17:11:31.097Z,17.04
2023-03-19T17:14:00.181Z,16.98
2023-03-19T17:16:28.369Z,16.73
2023-03-19T17:18:56.491Z,16.75
2023-03-19T17:21:33.226Z,16.45
2023-03-19T17:24:30.169Z,16.53
2023-03-19T17:27:01.705Z,16.24
2023-03-19T17:29:30.439Z,16.03
2023-03-19T17:32:01.815Z,16.09
2023-03-19T17:34:32.002Z,16.29
2023-03-19T17:37:04.581Z,16.09
2023-03-19T17:39:32.737Z,15.90
2023-03-19T17:41:59.986Z,15.88
2023-03-19T17:44:27.892Z,15.75
2023-03-19T17:46:55.794Z,15.46
2023-03-19T17:49:33.779Z,15.46
2023-03-19T17:52:01.452Z,15.39
2023-03-19T17:54:28.837Z,15.29
2023-03-19T17:56:56.129Z,15.55
2023-03-19T17:59:23.799Z,15.43
2023-03-19T18:01:52.000Z,15.28
2023-03-19T18:04:22.389Z,15.53
2023-03-19T18:06:55.914Z,15.31
2023-03-19T18:09:28.469Z,15.48
2023-03-19T18:11:55.977Z,15.18
2023-03-19T18:14:23.008Z,14.97
2023-03-19T18:16:50.605Z,14.99
2023-03-19T18:19:37.709Z,15.13
2023-03-19T18:22:17.734Z,14.55
2023-03-19T18:24:46.059Z,14.48
2023-03-19T18:27:13.479Z,14.44
2023-03-19T18:29:40.779Z,14.83
2023-03-19T18:32:17.644Z,14.56
2023-03-19T18:34:44.860Z,14.86
2023-03-19T18:37:18.240Z,14.87
2023-03-19T18:39:45.539Z,14.92
2023-03-19T18:42:14.187Z,15.23
2023-03-19T18:44:41.349Z,15.43
2023-03-19T18:47:15.781Z,15.37
2023-03-19T18:49:43.627Z,15.37
2023-03-19T18:52:17.852Z,15.40
2023-03-19T18:54:46.586Z,15.23
2023-03-19T18:57:15.643Z,14.96
2023-03-19T18:59:43.078Z,14.89
2023-03-19T19:02:35.012Z,15.23
2023-03-19T19:05:02.543Z,15.45
2023-03-19T19:07:29.724Z,15.50
2023-03-19T19:09:56.868Z,15.39
2023-03-19T19:12:25.986Z,15.11
2023-03-19T19:14:53.105Z,14.86
2023-03-19T19:17:24.472Z,14.98
2023-03-19T19:19:51.562Z,15.10
2023-03-19T19:22:19.885Z,15.05
2023-03-19T19:24:47.656Z,14.93
2023-03-19T19:27:23.662Z,14.81
2023-03-19T19:29:51.271Z,14.39
2023-03-19T19:32:29.356Z,14.19
2023-03-19T19:34:57.038Z,13.73
2023-03-19T19:37:24.317Z,13.57
2023-03-19T19:39:51.864Z,13.68
2023-03-19T19:42:22.587Z,13.69
2023-03-19T19:45:03.233Z,13.60
2023-03-19T19:47:30.435Z,13.70
2023-03-19T19:49:57.985Z,13.60
2023-03-19T19:52:25.078Z,14.06
2023-03-19T19:54:52.141Z,14.34
2023-03-19T19:57:26.419Z,14.65
2023-03-19T19:59:55.535Z,14.72
2023-03-19T20:02:29.105Z,14.62
2023-03-19T20:04:57.987Z,14.68
2023-03-19T20:07:25.122Z,14.90
2023-03-19T20:09:52.254Z,14.97
2023-03-19T20:12:30.854Z,14.93
2023-03-19T20:15:00.543Z,14.74
2023-03-19T20:17:27.930Z,14.99
2023-03-19T20:19:55.211Z,14.67
2023-03-19T20:22:22.324Z,14.92
2023-03-19T20:24:51.382Z,15.06
2023-03-19T20:27:28.662Z,15.12
2023-03-19T20:29:56.082Z,15.14
2023-03-19T20:32:34.280Z,15.27
2023-03-19T20:35:01.508Z,15.30
2023-03-19T20:37:29.423Z,15.39
2023-03-19T20:39:56.738Z,15.28
2023-03-19T20:42:24.641Z,15.39
2023-03-19T20:44:58.430Z,15.43
2023-03-19T20:47:25.925Z,15.45
2023-03-19T20:49:53.366Z,15.28
2023-03-19T20:52:21.319Z,15.45
2023-03-19T20:54:49.334Z,15.51
2023-03-19T20:57:29.142Z,15.58
2023-03-19T20:59:57.193Z,15.62
2023-03-19T21:02:26.218Z,15.60
2023-03-19T21:04:53.358Z,15.61
2023-03-19T21:07:34.459Z,15.64
2023-03-19T21:10:15.664Z,15.68
2023-03-19T21:12:42.742Z,15.69
2023-03-19T21:15:16.661Z,15.60
2023-03-19T21:17:44.295Z,15.68
2023-03-19T21:20:30.435Z,15.48
2023-03-19T21:23:17.458Z,15.69
2023-03-19T21:25:46.186Z,15.72
2023-03-19T21:28:34.118Z,15.79
2023-03-19T21:31:02.157Z,15.78
2023-03-19T21:33:33.142Z,15.76
2023-03-19T21:36:05.700Z,15.80
2023-03-19T21:38:33.018Z,15.74
2023-03-19T21:41:05.219Z,15.69
2023-03-19T21:43:43.781Z,15.72
2023-03-19T21:46:24.497Z,15.73
2023-03-19T21:48:54.471Z,15.68
2023-03-19T21:51:22.509Z,15.67
2023-03-19T21:53:49.731Z,15.71
2023-03-19T21:56:33.314Z,15.76
2023-03-19T21:59:04.116Z,15.71
2023-03-19T22:01:31.244Z,15.67
2023-03-19T22:03:58.550Z,15.62
2023-03-19T22:06:26.052Z,15.44
2023-03-19T22:08:54.057Z,15.37
2023-03-19T22:11:32.496Z,15.35
2023-03-19T22:14:17.783Z,15.30
2023-03-19T22:16:47.467Z,15.36
2023-03-19T22:19:17.770Z,15.37
2023-03-19T22:21:46.258Z,15.16
2023-03-19T22:24:13.500Z,15.14
2023-03-19T22:26:46.751Z,15.14
2023-03-19T22:29:23.487Z,15.22
2023-03-19T22:31:53.069Z,15.21
2023-03-19T22:34:25.511Z,15.18
2023-03-19T22:36:52.650Z,15.18
2023-03-19T22:39:19.914Z,15.12
2023-03-19T22:41:48.786Z,15.03
2023-03-19T22:44:31.233Z,14.97
2023-03-19T22:47:01.652Z,14.91
2023-03-19T22:49:32.381Z,14.77
2023-03-19T22:51:59.780Z,14.67
2023-03-19T22:54:26.825Z,14.15
2023-03-19T22:56:53.944Z,14.30
2023-03-19T22:59:21.512Z,14.40
2023-03-19T23:01:49.144Z,14.44
2023-03-19T23:04:25.100Z,14.40
2023-03-19T23:06:55.443Z,14.18
2023-03-19T23:09:35.841Z,14.23
2023-03-19T23:12:03.991Z,14.05
2023-03-19T23:14:33.561Z,14.30
2023-03-19T23:17:10.203Z,14.24
2023-03-19T23:19:38.360Z,14.12
2023-03-19T23:22:11.376Z,13.91
2023-03-19T23:24:38.666Z,13.71
2023-03-19T23:27:05.864Z,13.66
2023-03-19T23:29:40.937Z,13.52
2023-03-19T23:32:11.482Z,13.89
2023-03-19T23:34:54.028Z,14.12
2023-03-19T23:37:24.254Z,13.86
2023-03-19T23:39:51.787Z,13.74
2023-03-19T23:42:28.756Z,13.97
2023-03-19T23:45:01.919Z,14.02
2023-03-19T23:47:30.686Z,14.20
2023-03-19T23:49:58.059Z,13.99
2023-03-19T23:52:25.346Z,14.15
2023-03-19T23:54:52.509Z,14.13
2023-03-19T23:57:26.349Z,14.12
2023-03-19T23:59:54.141Z,13.91
